Disclaimer

Please do not use the information listed here in-flight or in-navigation, as they are not provided to us by the airports but are provided by volunteers, so they might be outdated.

Search


Regions


Airport information page

Radio informations:
Tower (TWR) - 122.3 MHz
Ground (GND) - 121.8 MHz
Automatic Terminal Information Service (ATIS) - 132.475 MHz
Approach (APP) - 119.5 MHz

Airport informations:
Latitude: 46° 24' 45.13" N
Longitude: 004° 00' 47.75" E
Elevation: 796 feet - 243 meters
Operating hours: Remarks
Operating agency: Civil government, landing fees and diplomatic clearance may be required
Timezone: UTC+1(+2DT) - Last Sunday in March to last Sunday in October
Fuel: Jet A1, without icing nhibitor.

100/130 MIL Spec, low lead, aviation gasoline (BLUE)

Runway information:
15R/33L - 4921 x 98 feet< - >1500 x 30 meters
15L/33R - 6660 x 148 feet< - >2030 x 45 meters

Recent METARs:
LFLN 160600Z AUTO 06004KT 0650 0600 R33/0750N FG VV/// 08/08 Q1023 NOSIG
LFLN 160630Z AUTO 08003KT 050V110 0750 0650 R33/0900U FG VV/// 08/08 Q1023 NOSIG
LFLN 160700Z AUTO 07005KT 1100 0750 R33/1200D BCFG VV/// 08/08 Q1024 TEMPO 0700 FG

Airport on the map: